Hovedside
METAR-TAF:

METAR-TAF

Lufthavner :

Broome, Australia

breddegrad: 17-57S, lengdegrad: 122-13E, høyde over havet: 17 m

Gjeldene værobservasjon

Denne rapporten ble laget for 37 minutter siden, klokken 09:30 UTC
Vind 3 kt fra Nordvest
Temperatur 25°C
Luftfuktighet 69%
Trykk 1012 hPa
Sikt 10 km eller mer

METAR: YBRM 150930Z AUTO 32003KT 9999 // NCD 25/19 Q1012 RF00.0/000.0

Tid: 18:07 (10:07 UTC)

Varsel

Denne rapporten ble laget for 5 timer og 3 minutter siden, klokken 05:04 UTC
Varsel gyldig fra 15. klokken 06 UTC til 16. klokken 06 UTC
Vind 7 kt fra Sørvest
Sikt 10 km eller mer
ingen skyer under 1500 m og ingen bygeskyer
Fra 15. klokken 1200 UTC
Vind 3 kt fra skiftende retning
Sikt 10 km eller mer
ingen skyer under 1500 m og ingen bygeskyer
Fra 16. klokken 0400 UTC
Vind 8 kt fra Vest
Sikt 10 km eller mer
ingen skyer under 1500 m og ingen bygeskyer

TAF: YBRM 150504Z 1506/1606 23007KT CAVOK FM151200 VRB03KT CAVOK FM160400 26008KT CAVOK

Værobservasjoner og værvarsel for over 4000 flyplasser (METAR- og TAF-rapporter).

Tilgjengelige stasjoner er representert av de røde og gule prikkene på kartet.

Hold musepekeren over prikken for å se navnet på stasjonen.

Klikk så for å se værobservasjoner og -varsler.

For å forandre kartet kan du klikke på den grønne knappen med svart kryss for å zoome inn, på den grønne knappen med strek for å zoome ut, eller på de grønne pilene for å se tilstøtende kart.


METAR-TAF: